Time;durP1;ratioP1;P1;durP2;ratioP2;P2;SDS_P1;SDS_P2;PMS_P1;PMS_P2;Temp;Humidity;BMP_temperature;BMP_pressure;BME280_temperature;BME280_humidity;BME280_pressure;Samples;Min_cycle;Max_cycle;Signal;HPM_P1;HPM_P2
2021/01/19 00:00:13;;;;;;;9.96;7.71;;;6.70;99.90;;;10.85;88.45;101506.11;1706533;74;25000;-75
2021/01/19 00:02:29;;;;;;;15.20;11.44;;;6.60;99.90;;;10.60;89.42;101521.68;1717374;73;24991;-75
2021/01/19 00:04:46;;;;;;;16.66;11.12;;;6.60;99.90;;;10.83;88.85;101504.78;1724895;73;24445;-76
2021/01/19 00:07:01;;;;;;;11.93;8.83;;;6.70;99.90;;;10.74;88.68;101520.23;1729427;73;24499;-75
2021/01/19 00:09:19;;;;;;;14.40;9.99;;;6.60;99.90;;;10.75;88.62;101517.22;1699269;75;24436;-74
2021/01/19 00:11:36;;;;;;;15.71;9.53;;;6.70;99.90;;;10.88;88.36;101513.98;1686012;75;25267;-75
2021/01/19 00:13:52;;;;;;;14.68;10.82;;;6.60;99.90;;;10.79;88.12;101504.70;1676120;76;24443;-74
2021/01/19 00:16:10;;;;;;;14.54;9.30;;;6.60;99.90;;;10.69;88.86;101502.33;1680651;76;24472;-75
2021/01/19 00:18:28;;;;;;;10.32;7.69;;;6.50;99.90;;;10.49;89.09;101500.63;1662576;76;24468;-74
2021/01/19 00:20:48;;;;;;;11.37;9.58;;;6.30;99.90;;;10.31;89.30;101495.02;1688372;75;24483;-74
2021/01/19 00:23:04;;;;;;;12.46;7.78;;;6.20;99.90;;;10.50;88.99;101491.96;1672592;76;24570;-74
2021/01/19 00:25:20;;;;;;;13.18;9.14;;;6.20;99.90;;;10.35;88.84;101480.34;1691708;75;24470;-74
2021/01/19 00:27:37;;;;;;;12.23;8.03;;;6.10;99.90;;;10.54;88.60;101478.59;1685607;75;24907;-75
2021/01/19 00:29:54;;;;;;;8.35;5.71;;;6.10;99.90;;;10.48;88.47;101458.91;1669405;76;24475;-74
2021/01/19 00:32:13;;;;;;;7.50;6.16;;;6.00;99.90;;;10.50;88.31;101468.94;1702524;75;24529;-74
2021/01/19 00:34:30;;;;;;;10.45;7.04;;;6.00;99.90;;;10.47;88.40;101474.09;1635590;76;24579;-75
2021/01/19 00:36:46;;;;;;;12.19;7.51;;;6.00;99.90;;;10.33;88.73;101463.40;1676903;76;24928;-73
2021/01/19 00:39:03;;;;;;;13.52;7.78;;;6.00;99.90;;;10.54;88.06;101456.45;1707227;75;24925;-75
2021/01/19 00:41:19;;;;;;;8.86;5.75;;;6.10;99.90;;;10.59;87.62;101450.92;1663575;76;24361;-75
2021/01/19 00:43:35;;;;;;;10.19;5.95;;;6.10;99.90;;;10.42;88.19;101449.27;1674599;76;24498;-76
2021/01/19 00:45:52;;;;;;;16.58;5.59;;;6.10;99.90;;;10.50;87.78;101436.39;1679456;76;24494;-74
2021/01/19 00:48:10;;;;;;;10.68;5.95;;;6.10;99.90;;;10.44;88.05;101442.38;1674154;76;24483;-73
2021/01/19 00:50:26;;;;;;;9.69;5.54;;;6.20;99.90;;;10.41;87.85;101436.22;1675124;76;24917;-75
2021/01/19 00:52:46;;;;;;;10.84;4.69;;;6.20;99.90;;;10.23;88.76;101435.81;1676694;76;24458;-74
2021/01/19 00:55:03;;;;;;;7.50;3.65;;;6.20;99.90;;;10.17;89.66;101423.57;1690963;76;24458;-74
2021/01/19 00:57:19;;;;;;;6.88;3.72;;;6.20;99.90;;;10.36;89.16;101430.03;1667502;76;24938;-74
2021/01/19 00:59:36;;;;;;;4.49;2.76;;;6.20;99.90;;;10.32;89.04;101421.72;1686017;76;24596;-75
2021/01/19 01:01:52;;;;;;;8.56;4.99;;;6.20;99.90;;;10.20;89.17;101409.31;1691745;75;24493;-76
2021/01/19 01:04:08;;;;;;;7.65;3.82;;;6.20;99.90;;;10.40;88.78;101405.39;1694910;75;24923;-75
2021/01/19 01:06:25;;;;;;;7.29;4.00;;;6.20;99.90;;;10.15;89.19;101416.15;1716192;73;24583;-75
2021/01/19 01:08:41;;;;;;;10.58;4.89;;;6.20;99.90;;;10.42;88.80;101409.32;1716060;75;24878;-76
2021/01/19 01:10:57;;;;;;;5.35;3.40;;;6.30;99.90;;;10.34;88.54;101399.17;1716594;73;24743;-75
2021/01/19 01:13:14;;;;;;;9.74;4.19;;;6.30;99.90;;;10.27;88.24;101398.20;1724093;73;25014;-75
2021/01/19 01:15:38;;;;;;;9.71;4.20;;;6.30;99.90;;;10.52;87.48;101396.54;1716467;73;24531;-74
2021/01/19 01:17:54;;;;;;;11.80;4.59;;;6.30;99.90;;;10.65;86.98;101393.30;1713463;73;24553;-75
2021/01/19 01:20:14;;;;;;;6.72;2.80;;;6.30;99.90;;;10.59;86.04;101381.47;1715939;73;24440;-76
2021/01/19 01:22:30;;;;;;;5.56;3.27;;;6.30;99.90;;;10.41;86.46;101373.33;1682041;75;24505;-75
2021/01/19 01:24:47;;;;;;;9.98;4.44;;;6.30;99.90;;;10.25;87.70;101371.67;1714675;73;24428;-74
2021/01/19 01:27:03;;;;;;;8.47;4.27;;;6.30;99.90;;;10.57;85.25;101358.41;1721360;73;24507;-73
2021/01/19 01:29:20;;;;;;;6.62;2.76;;;6.30;99.90;;;10.43;86.15;101352.08;1684435;75;24443;-75
2021/01/19 01:34:00;;;;;;;7.07;2.89;;;6.30;99.90;;;10.41;86.21;101333.38;1727258;72;32527;-75
2021/01/19 01:36:18;;;;;;;4.67;2.78;;;6.30;99.90;;;10.38;85.54;101332.92;1677982;75;24469;-75
2021/01/19 01:38:36;;;;;;;6.61;3.07;;;6.30;99.90;;;10.34;85.70;101329.78;1688803;75;24814;-76
2021/01/19 01:40:53;;;;;;;10.09;3.31;;;6.30;99.90;;;10.49;85.34;101318.37;1701208;75;24909;-75
2021/01/19 01:43:15;;;;;;;6.21;2.67;;;6.30;99.90;;;10.24;85.67;101325.69;1684902;75;25144;-74
2021/01/19 01:45:33;;;;;;;7.28;2.70;;;6.30;99.90;;;10.22;85.71;101316.55;1686016;75;24538;-74
2021/01/19 01:47:53;;;;;;;7.95;3.35;;;6.30;99.90;;;10.30;85.18;101303.67;1695611;75;24867;-75
2021/01/19 01:50:13;;;;;;;6.29;2.70;;;6.20;99.90;;;10.26;84.77;101296.22;1694727;74;24447;-75
2021/01/19 01:52:31;;;;;;;7.32;2.41;;;6.20;99.90;;;10.07;85.97;101299.31;1702102;74;24479;-73
2021/01/19 01:54:51;;;;;;;10.84;3.40;;;6.20;99.90;;;10.13;85.67;101289.02;1701676;75;24432;-74
2021/01/19 01:57:09;;;;;;;8.25;3.12;;;6.20;99.90;;;10.21;84.97;101279.64;1695608;75;24473;-76
2021/01/19 01:59:25;;;;;;;9.00;2.96;;;6.20;99.90;;;10.22;83.89;101260.59;1679734;75;24568;-75
2021/01/19 02:01:41;;;;;;;7.00;2.72;;;6.20;99.90;;;10.21;84.76;101269.67;1688853;75;24530;-75
2021/01/19 02:03:57;;;;;;;8.68;2.85;;;6.10;99.90;;;10.08;84.87;101266.38;1685498;75;25028;-75
2021/01/19 02:06:17;;;;;;;6.91;2.73;;;6.10;99.90;;;10.07;84.66;101254.20;1683426;75;24461;-75
2021/01/19 02:08:45;;;;;;;7.47;3.31;;;6.10;99.90;;;10.16;83.68;101256.55;1685239;75;24873;-74
2021/01/19 02:11:11;;;;;;;4.82;2.43;;;6.10;99.90;;;10.14;83.85;101242.66;1689849;75;24533;-75
2021/01/19 02:13:36;;;;;;;8.56;2.63;;;6.10;99.90;;;10.06;83.58;101245.50;1686959;75;24945;-73
2021/01/19 02:16:01;;;;;;;4.98;2.27;;;6.10;99.90;;;9.96;84.35;101230.97;1689731;75;24496;-75
2021/01/19 02:18:44;;;;;;;7.50;2.75;;;6.00;99.90;;;10.06;83.69;101218.59;1684051;75;24496;-73
2021/01/19 02:21:39;;;;;;;7.22;2.44;;;6.00;99.90;;;9.84;84.15;101219.05;1673188;75;24483;-75
2021/01/19 02:24:02;;;;;;;6.56;3.10;;;6.00;99.90;;;10.08;83.14;101226.94;1681820;75;24883;-74
2021/01/19 02:27:12;;;;;;;7.16;2.63;;;6.00;99.90;;;9.96;83.63;101202.36;1691959;75;24416;-74
2021/01/19 02:30:06;;;;;;;4.26;1.81;;;6.00;99.90;;;10.08;82.50;101205.23;1698197;75;24956;-75
2021/01/19 02:32:35;;;;;;;9.16;2.77;;;6.00;99.90;;;9.96;83.19;101196.73;1689419;75;24522;-74
2021/01/19 02:34:57;;;;;;;6.14;1.91;;;5.90;99.90;;;9.88;83.71;101206.13;1698555;74;24444;-74
2021/01/19 02:37:17;;;;;;;4.76;1.99;;;6.00;99.90;;;9.87;83.49;101193.98;1686483;75;24462;-75
2021/01/19 02:39:41;;;;;;;8.21;2.44;;;6.00;99.90;;;9.86;82.95;101183.55;1680315;75;24870;-74
2021/01/19 02:42:01;;;;;;;5.68;2.38;;;6.00;99.90;;;9.90;82.15;101169.32;1694549;75;24462;-75
2021/01/19 02:44:23;;;;;;;6.20;2.69;;;6.00;99.90;;;10.05;82.24;101170.88;1695821;74;24448;-74
2021/01/19 02:46:41;;;;;;;6.19;2.73;;;6.00;99.90;;;9.87;82.33;101154.96;1697514;75;24928;-75
2021/01/19 02:48:58;;;;;;;8.28;2.31;;;6.00;99.90;;;10.13;80.67;101158.06;1677932;75;24891;-73
2021/01/19 02:51:16;;;;;;;4.39;2.20;;;6.00;99.90;;;9.89;81.93;101154.98;1696487;75;24504;-76
2021/01/19 02:53:33;;;;;;;8.00;2.66;;;6.00;99.90;;;10.02;81.20;101153.06;1677972;75;24378;-73
2021/01/19 02:55:55;;;;;;;7.85;3.12;;;6.00;99.90;;;9.80;82.24;101143.98;1687498;75;25045;-75
2021/01/19 03:01:45;;;;;;;7.20;2.42;;;5.90;99.90;;;10.02;80.29;101120.09;1741117;72;25317;-74
2021/01/19 03:04:06;;;;;;;6.51;3.25;;;5.80;99.90;;;9.55;82.10;101110.58;1710064;74;24605;-72
2021/01/19 03:06:26;;;;;;;5.68;2.43;;;5.70;99.90;;;9.59;82.31;101113.70;1705646;74;24457;-74
2021/01/19 03:08:46;;;;;;;5.52;2.46;;;5.50;99.90;;;9.47;82.85;101113.45;1703966;74;24902;-76
2021/01/19 03:11:07;;;;;;;11.35;3.64;;;5.50;99.90;;;9.56;82.69;101112.77;1703266;74;24965;-74
2021/01/19 03:13:25;;;;;;;7.09;3.01;;;5.40;99.90;;;9.55;83.38;101105.38;1693929;74;24554;-73
2021/01/19 03:15:42;;;;;;;5.43;2.65;;;5.40;99.90;;;9.70;82.27;101095.28;1710247;74;24958;-74
2021/01/19 03:18:01;;;;;;;5.04;2.90;;;5.40;99.90;;;9.63;83.33;101096.00;1706120;74;24433;-74
2021/01/19 03:20:22;;;;;;;6.95;2.81;;;5.50;99.90;;;9.64;83.24;101099.04;1705795;74;24969;-75
2021/01/19 03:22:38;;;;;;;5.77;3.04;;;5.60;99.90;;;9.51;83.72;101070.20;1711583;74;24527;-75
2021/01/19 03:25:01;;;;;;;7.78;3.66;;;5.60;99.90;;;9.48;84.36;101074.05;1706988;74;24913;-74
2021/01/19 03:27:15;;;;;;;5.33;2.81;;;5.70;99.90;;;9.87;83.11;101076.05;1704586;74;24473;-75
2021/01/19 03:29:31;;;;;;;8.07;3.71;;;5.70;99.90;;;9.71;83.27;101059.31;1714797;74;24425;-73
2021/01/19 03:31:50;;;;;;;8.49;3.50;;;5.70;99.90;;;9.46;84.86;101053.64;1710350;74;24525;-75
2021/01/19 03:34:07;;;;;;;8.24;3.45;;;5.70;99.90;;;9.74;83.53;101048.96;1713464;74;24540;-74
2021/01/19 03:36:23;;;;;;;8.89;4.19;;;5.60;99.90;;;9.47;84.00;101039.38;1707488;74;24437;-73
2021/01/19 03:38:39;;;;;;;7.79;3.32;;;5.60;99.90;;;9.49;84.60;101034.20;1707234;74;24897;-74
2021/01/19 03:40:55;;;;;;;9.20;4.39;;;5.40;99.90;;;9.03;86.03;101029.47;1715694;74;24991;-73
2021/01/19 03:43:12;;;;;;;5.60;3.23;;;5.40;99.90;;;9.02;88.54;101021.64;1714781;74;24471;-74
2021/01/19 03:45:31;;;;;;;7.33;3.95;;;5.20;99.90;;;8.83;88.45;101008.73;1707726;74;24511;-74
2021/01/19 03:47:50;;;;;;;10.87;5.36;;;5.10;99.90;;;8.89;89.25;101010.55;1707959;74;24512;-73
2021/01/19 03:50:09;;;;;;;10.26;4.07;;;5.10;99.90;;;9.07;89.09;101007.88;1707589;75;24512;-73
2021/01/19 03:52:25;;;;;;;11.45;4.50;;;5.00;99.90;;;8.74;90.38;100991.65;1709005;74;24446;-73
2021/01/19 03:54:42;;;;;;;9.91;4.31;;;5.00;99.90;;;8.86;90.88;100996.22;1713306;74;24950;-74
2021/01/19 03:56:58;;;;;;;11.44;5.06;;;4.90;99.90;;;8.93;90.79;100994.20;1718171;74;24444;-74
2021/01/19 03:59:14;;;;;;;11.11;3.72;;;4.90;99.90;;;8.82;91.85;100985.34;1710462;74;24911;-74
2021/01/19 04:01:32;;;;;;;13.33;5.73;;;4.90;99.90;;;8.92;91.25;100978.16;1714192;74;24867;-73
2021/01/19 04:03:50;;;;;;;10.69;5.03;;;4.90;99.90;;;8.92;92.03;100960.86;1708245;74;24515;-73
2021/01/19 04:06:09;;;;;;;9.99;4.70;;;4.90;99.90;;;8.91;91.59;100979.90;1705858;74;24485;-74
2021/01/19 04:08:29;;;;;;;8.67;4.93;;;4.90;99.90;;;8.92;92.06;100965.17;1710652;74;24457;-75
2021/01/19 04:10:48;;;;;;;6.40;3.84;;;4.90;99.90;;;8.76;93.45;100951.02;1711800;74;24547;-74
2021/01/19 04:13:03;;;;;;;13.60;4.82;;;4.90;99.90;;;9.05;92.67;100937.29;1700033;74;24478;-73
2021/01/19 04:15:19;;;;;;;7.48;4.08;;;4.90;99.90;;;8.93;92.88;100959.15;1715644;74;24433;-74
2021/01/19 04:17:37;;;;;;;7.84;4.84;;;4.90;99.90;;;8.91;93.29;100940.06;1709540;74;24541;-73
2021/01/19 04:19:53;;;;;;;9.93;5.52;;;4.90;99.90;;;8.76;94.26;100930.26;1673453;76;24473;-74
2021/01/19 04:22:09;;;;;;;9.11;4.88;;;4.90;99.90;;;8.82;94.40;100917.38;1704869;75;24545;-73
2021/01/19 04:24:25;;;;;;;10.02;4.71;;;4.90;99.90;;;8.82;94.74;100925.62;1706958;74;24982;-73
2021/01/19 04:26:41;;;;;;;12.26;5.07;;;4.90;99.90;;;8.62;95.29;100929.53;1705437;75;24465;-74
2021/01/19 04:29:00;;;;;;;11.69;6.06;;;4.90;99.90;;;8.59;95.95;100916.50;1705366;74;24963;-74
2021/01/19 04:31:16;;;;;;;11.56;5.53;;;4.90;99.90;;;8.95;96.22;100914.59;1714599;74;24783;-73
2021/01/19 04:33:32;;;;;;;7.25;4.53;;;4.90;99.90;;;8.94;95.99;100908.54;1711088;73;24496;-74
2021/01/19 04:35:49;;;;;;;11.08;6.19;;;4.90;99.90;;;8.67;96.51;100894.16;1705811;75;24471;-73
2021/01/19 04:38:06;;;;;;;9.18;5.57;;;5.00;99.90;;;8.87;96.07;100894.09;1667876;75;24478;-75
2021/01/19 04:40:23;;;;;;;10.43;6.06;;;4.90;99.90;;;8.68;96.82;100896.78;1708109;74;24449;-75
2021/01/19 04:42:41;;;;;;;9.73;5.00;;;5.00;99.90;;;8.82;96.80;100894.46;1714108;74;24992;-73
2021/01/19 04:44:57;;;;;;;8.80;5.20;;;5.00;99.90;;;8.71;97.01;100887.75;1715816;74;24515;-72
2021/01/19 04:47:15;;;;;;;7.08;4.79;;;4.90;99.90;;;8.70;97.43;100870.85;1715374;74;24479;-73
2021/01/19 04:49:33;;;;;;;7.82;4.18;;;5.00;99.90;;;8.72;97.55;100877.84;1711045;73;24910;-73
2021/01/19 04:52:07;;;;;;;5.97;4.21;;;5.00;99.90;;;8.85;97.11;100879.78;1708217;74;24933;-74
2021/01/19 04:54:28;;;;;;;9.55;5.22;;;5.00;99.90;;;8.52;98.50;100866.19;1705467;74;24566;-74
2021/01/19 04:56:53;;;;;;;7.02;4.73;;;5.00;99.90;;;8.69;98.74;100864.78;1709223;74;24910;-73
2021/01/19 04:59:14;;;;;;;8.28;4.82;;;5.00;99.90;;;8.78;98.41;100856.30;1705487;74;25034;-75
2021/01/19 05:02:34;;;;;;;8.37;4.98;;;5.00;99.90;;;8.76;98.67;100851.48;1706309;74;24516;-74
2021/01/19 05:04:53;;;;;;;5.08;4.19;;;5.00;99.90;;;8.84;98.30;100855.98;1703611;74;24514;-74
2021/01/19 05:07:33;;;;;;;6.86;4.16;;;4.90;99.90;;;8.69;98.76;100832.77;1690305;75;24883;-74
2021/01/19 05:10:13;;;;;;;7.61;4.66;;;5.00;99.90;;;8.49;99.24;100815.53;1700842;75;24472;-74
2021/01/19 05:12:35;;;;;;;6.34;4.30;;;5.00;99.90;;;8.41;99.95;100818.86;1674616;75;24906;-74
2021/01/19 05:14:55;;;;;;;7.26;4.46;;;5.00;99.90;;;8.75;99.43;100813.00;1694892;75;24435;-75
2021/01/19 05:17:11;;;;;;;6.80;4.32;;;5.00;99.90;;;8.62;99.74;100804.95;1681470;75;24462;-73
2021/01/19 05:19:27;;;;;;;7.75;5.03;;;5.00;99.90;;;8.68;99.79;100795.55;1661202;77;24436;-73
2021/01/19 05:21:46;;;;;;;5.07;4.21;;;5.00;99.90;;;8.82;99.84;100793.20;1688124;74;24497;-72
2021/01/19 05:24:05;;;;;;;8.17;4.56;;;5.00;99.90;;;8.55;100.00;100783.20;1684755;75;24469;-73
2021/01/19 05:26:21;;;;;;;7.25;4.33;;;5.00;99.90;;;8.81;100.00;100776.74;1688125;75;24484;-74
2021/01/19 05:28:45;;;;;;;4.90;4.02;;;5.10;99.90;;;8.53;100.00;100759.38;1681998;75;24528;-75
2021/01/19 05:31:03;;;;;;;9.06;5.04;;;5.00;99.90;;;8.61;100.00;100761.69;1701970;75;24425;-74
2021/01/19 05:33:19;;;;;;;3.66;3.04;;;5.10;99.90;;;8.91;100.00;100762.19;1688952;75;24460;-71
2021/01/19 05:35:38;;;;;;;7.56;3.82;;;5.10;99.90;;;8.73;100.00;100755.39;1693329;75;24986;-74
2021/01/19 05:38:04;;;;;;;5.42;4.00;;;5.10;99.90;;;8.81;100.00;100759.87;1695829;75;24436;-74
2021/01/19 05:40:20;;;;;;;8.18;5.50;;;5.10;99.90;;;8.90;100.00;100778.19;1683533;75;24449;-74
2021/01/19 05:42:39;;;;;;;4.63;3.98;;;5.20;99.90;;;9.16;100.00;100753.91;1684502;75;25007;-73
2021/01/19 05:44:56;;;;;;;5.27;4.16;;;5.20;99.90;;;8.81;100.00;100740.40;1689579;75;24520;-74
2021/01/19 05:47:16;;;;;;;7.61;4.70;;;5.20;99.90;;;9.00;100.00;100729.45;1692676;75;24378;-73
2021/01/19 05:49:37;;;;;;;6.90;4.87;;;5.20;99.90;;;9.01;100.00;100732.48;1690044;75;24450;-74
2021/01/19 05:51:58;;;;;;;4.26;2.89;;;5.20;99.90;;;9.05;99.68;100712.21;1689302;75;24523;-73
2021/01/19 05:54:28;;;;;;;5.60;4.05;;;5.20;99.90;;;9.06;100.00;100723.03;1687674;75;24538;-72
2021/01/19 05:56:48;;;;;;;5.83;3.10;;;5.30;99.90;;;9.21;100.00;100718.04;1690181;74;24367;-74
2021/01/19 05:59:06;;;;;;;4.76;3.22;;;5.30;99.90;;;8.92;100.00;100714.17;1679211;75;24504;-73
2021/01/19 06:01:34;;;;;;;4.03;3.12;;;5.30;99.90;;;8.96;100.00;100712.05;1692275;75;24542;-74
2021/01/19 06:03:59;;;;;;;3.85;3.27;;;5.20;99.90;;;9.00;100.00;100703.89;1679191;75;24452;-75
2021/01/19 06:06:19;;;;;;;3.98;2.87;;;5.30;99.90;;;9.04;100.00;100688.37;1695918;75;24489;-74
2021/01/19 06:08:36;;;;;;;4.38;3.29;;;5.30;99.90;;;8.92;100.00;100688.63;1681033;75;24504;-73
2021/01/19 06:10:55;;;;;;;5.22;4.36;;;5.30;99.90;;;9.12;100.00;100675.48;1700218;75;24475;-73
2021/01/19 06:13:20;;;;;;;4.40;3.22;;;5.30;99.90;;;9.34;100.00;100690.95;1689290;75;24553;-74
2021/01/19 06:15:37;;;;;;;4.83;3.77;;;5.40;99.90;;;9.17;100.00;100651.33;1693591;75;24509;-73
2021/01/19 06:17:53;;;;;;;6.52;3.50;;;5.40;99.90;;;9.19;100.00;100651.34;1679858;75;24500;-74
2021/01/19 06:20:12;;;;;;;5.33;4.28;;;5.40;99.90;;;9.09;100.00;100658.14;1693731;75;24432;-73
2021/01/19 06:22:30;;;;;;;4.40;3.42;;;5.40;99.90;;;9.40;100.00;100649.02;1691801;75;24457;-74
2021/01/19 06:24:49;;;;;;;4.48;3.70;;;5.50;99.90;;;9.34;100.00;100635.08;1690132;75;24421;-74
2021/01/19 06:27:08;;;;;;;4.77;4.07;;;5.50;99.90;;;9.25;100.00;100644.92;1686921;75;24476;-74
2021/01/19 06:29:28;;;;;;;4.32;3.04;;;5.50;99.90;;;9.46;100.00;100620.50;1696259;75;24431;-73
2021/01/19 06:31:48;;;;;;;3.89;3.08;;;5.50;99.90;;;9.23;100.00;100616.33;1691139;75;24522;-73
2021/01/19 06:34:05;;;;;;;4.58;2.90;;;5.50;99.90;;;9.38;100.00;100608.27;1699077;75;24547;-73
2021/01/19 06:36:22;;;;;;;4.05;3.10;;;5.50;99.90;;;9.40;100.00;100592.27;1686039;75;25016;-73
2021/01/19 06:38:58;;;;;;;3.87;3.30;;;5.60;99.90;;;9.19;100.00;100600.69;1689608;75;24491;-75
2021/01/19 06:41:19;;;;;;;3.48;2.53;;;5.60;99.90;;;9.21;100.00;100580.81;1680831;75;24369;-74
2021/01/19 06:43:42;;;;;;;4.86;2.96;;;5.60;99.90;;;9.23;100.00;100567.84;1684774;75;24544;-74
2021/01/19 06:46:02;;;;;;;3.66;3.07;;;5.60;99.90;;;9.25;100.00;100564.38;1697334;75;24475;-74
2021/01/19 06:48:22;;;;;;;5.03;3.10;;;5.60;99.90;;;9.45;100.00;100546.00;1687280;75;24449;-76
2021/01/19 06:50:40;;;;;;;4.69;3.50;;;5.60;99.90;;;9.52;100.00;100538.70;1682759;75;24477;-74
2021/01/19 06:53:16;;;;;;;3.95;3.49;;;5.60;99.90;;;9.51;100.00;100539.56;1687056;75;24899;-76
2021/01/19 06:55:42;;;;;;;5.03;2.86;;;5.60;99.90;;;9.38;100.00;100520.80;1684401;75;24432;-74
2021/01/19 06:58:47;;;;;;;2.93;2.44;;;5.60;99.90;;;9.48;100.00;100510.95;1686718;75;24442;-75
2021/01/19 07:01:09;;;;;;;3.53;2.84;;;5.60;99.90;;;9.26;100.00;100513.31;1689380;75;24508;-74
2021/01/19 07:03:26;;;;;;;3.10;2.66;;;5.60;99.90;;;9.35;100.00;100490.89;1697790;74;24543;-73
2021/01/19 07:05:52;;;;;;;3.50;3.20;;;5.60;99.90;;;9.28;100.00;100494.27;1720333;74;24873;-75
2021/01/19 07:08:20;;;;;;;4.30;3.90;;;5.70;99.90;;;9.55;100.00;100498.88;1706672;74;24918;-75
2021/01/19 07:13:32;;;;;;;4.46;3.22;;;5.70;99.90;;;9.97;100.00;100507.91;1800134;69;25242;-74
2021/01/19 07:16:25;;;;;;;3.11;2.77;;;5.70;99.90;;;9.73;100.00;100470.00;1775065;71;24441;-75
2021/01/19 07:19:17;;;;;;;4.09;3.12;;;5.70;99.90;;;9.53;100.00;100465.05;1771629;71;24480;-74
2021/01/19 07:24:56;;;;;;;3.78;3.28;;;5.70;99.90;;;9.92;100.00;100461.91;1744557;72;25301;-75
2021/01/19 07:27:18;;;;;;;5.52;3.55;;;5.80;99.90;;;9.65;100.00;100464.30;1717640;73;24964;-80
2021/01/19 07:29:36;;;;;;;3.66;3.13;;;5.80;99.90;;;9.85;100.00;100444.50;1718489;73;24886;-80
2021/01/19 07:31:54;;;;;;;4.35;2.97;;;5.80;99.90;;;9.69;100.00;100440.92;1724170;73;24954;-83
2021/01/19 07:34:14;;;;;;;3.65;3.03;;;5.90;99.90;;;9.61;100.00;100435.25;1724650;73;24499;-82
2021/01/19 07:36:31;;;;;;;3.77;3.31;;;5.90;99.90;;;9.69;100.00;100425.78;1718151;73;24453;-84
2021/01/19 07:38:48;;;;;;;4.95;3.05;;;5.90;99.90;;;9.80;100.00;100409.38;1725905;73;24442;-80
2021/01/19 07:41:06;;;;;;;3.86;3.06;;;5.90;99.90;;;9.79;100.00;100402.86;1721013;73;24484;-82
2021/01/19 07:43:24;;;;;;;4.14;3.43;;;5.90;99.90;;;9.81;100.00;100411.55;1723516;73;24439;-80
2021/01/19 07:45:42;;;;;;;4.11;2.76;;;6.00;99.90;;;10.05;100.00;100428.16;1724482;73;24446;-81
2021/01/19 07:48:14;;;;;;;4.08;3.00;;;6.00;99.90;;;9.84;100.00;100411.56;1722228;73;24494;-81
2021/01/19 07:50:33;;;;;;;3.64;3.34;;;6.00;99.90;;;9.90;100.00;100412.48;1721341;73;24456;-82
2021/01/19 07:52:55;;;;;;;3.20;2.60;;;6.10;99.90;;;9.95;100.00;100414.69;1720700;73;24457;-81
2021/01/19 07:55:23;;;;;;;3.45;3.08;;;6.10;99.90;;;9.92;100.00;100415.09;1721703;73;24448;-80
2021/01/19 07:57:43;;;;;;;2.26;2.06;;;6.10;99.90;;;9.93;100.00;100394.30;1719334;73;24499;-81
2021/01/19 08:00:07;;;;;;;2.99;2.47;;;6.10;99.90;;;9.86;100.00;100385.16;1720667;73;24453;-81
2021/01/19 08:02:27;;;;;;;3.94;2.92;;;6.10;99.90;;;9.81;100.00;100386.43;1723482;73;24481;-81
2021/01/19 08:04:50;;;;;;;3.53;2.42;;;6.20;99.90;;;9.92;100.00;100365.26;1721886;73;24471;-74
2021/01/19 08:07:21;;;;;;;4.01;3.11;;;6.20;99.90;;;10.13;100.00;100393.15;1725253;73;24470;-76
2021/01/19 08:10:16;;;;;;;3.03;2.21;;;6.30;99.90;;;10.11;100.00;100376.66;1642937;77;24476;-75
2021/01/19 08:12:39;;;;;;;4.75;2.89;;;6.30;99.90;;;10.09;100.00;100376.64;1644359;77;24582;-80
2021/01/19 08:17:45;;;;;;;3.09;2.62;;;6.30;99.90;;;10.23;100.00;100368.47;1786625;69;25246;-75
2021/01/19 08:20:09;;;;;;;3.21;2.62;;;6.30;99.90;;;10.12;100.00;100338.94;1776690;70;25024;-80
2021/01/19 08:22:30;;;;;;;4.58;2.60;;;6.30;99.90;;;10.31;100.00;100377.18;1722146;71;25034;-76
2021/01/19 08:24:59;;;;;;;3.35;2.74;;;6.40;99.90;;;10.18;100.00;100379.73;1744506;73;25117;-76
2021/01/19 08:27:07;;;;;;;2.79;2.41;;;6.40;99.90;;;10.26;100.00;100383.21;1785802;69;25026;-77
2021/01/19 08:29:27;;;;;;;2.37;2.17;;;6.40;99.90;;;10.32;100.00;100416.64;1776794;69;24944;-72
2021/01/19 08:31:46;;;;;;;3.23;2.05;;;6.50;99.90;;;10.19;100.00;100364.55;1774009;70;24535;-76
2021/01/19 08:34:07;;;;;;;2.48;2.26;;;6.50;99.90;;;10.23;100.00;100334.64;1765995;70;24436;-75
2021/01/19 08:36:27;;;;;;;2.15;1.99;;;6.50;99.90;;;10.28;100.00;100397.98;1748070;71;24484;-80
2021/01/19 08:38:47;;;;;;;2.49;2.29;;;6.50;99.90;;;10.39;100.00;100412.33;1762873;70;24437;-76
2021/01/19 08:41:10;;;;;;;3.53;2.50;;;6.60;99.90;;;10.32;100.00;100389.77;1772827;69;24434;-76
2021/01/19 08:43:32;;;;;;;3.22;2.61;;;6.60;99.90;;;10.42;100.00;100388.50;1780619;70;25123;-76
2021/01/19 08:45:49;;;;;;;3.52;2.82;;;6.60;99.90;;;10.41;100.00;100359.45;1775616;70;25038;-79
2021/01/19 08:48:10;;;;;;;2.99;2.49;;;6.70;99.90;;;10.47;100.00;100346.44;1802754;69;24586;-76
2021/01/19 08:50:30;;;;;;;3.10;2.38;;;6.70;99.90;;;10.44;100.00;100355.97;1772682;69;24944;-75
2021/01/19 08:52:47;;;;;;;5.30;2.44;;;6.70;99.90;;;10.44;100.00;100382.00;1779333;69;24544;-77
2021/01/19 08:55:05;;;;;;;3.04;2.71;;;6.70;99.90;;;10.56;100.00;100342.55;1788160;70;24431;-77
2021/01/19 08:57:23;;;;;;;2.57;2.36;;;6.70;99.90;;;10.54;100.00;100344.73;1785338;70;24519;-76
2021/01/19 08:59:39;;;;;;;3.28;2.47;;;6.70;99.90;;;10.55;100.00;100360.35;1778330;70;24490;-76
2021/01/19 09:01:56;;;;;;;2.83;2.62;;;6.80;99.90;;;10.64;100.00;100351.67;1785885;70;24605;-77
2021/01/19 09:04:15;;;;;;;4.05;2.82;;;6.80;99.90;;;10.78;100.00;100351.27;1753196;71;24607;-76
2021/01/19 09:06:33;;;;;;;3.17;2.75;;;6.90;99.90;;;10.77;100.00;100381.21;1781398;71;24702;-76
2021/01/19 09:08:59;;;;;;;3.05;2.72;;;6.90;99.90;;;10.69;100.00;100340.84;1769315;70;25792;-75
2021/01/19 09:11:20;;;;;;;3.50;2.53;;;6.90;99.90;;;10.62;100.00;100349.52;1762762;72;24535;-76
2021/01/19 09:14:07;;;;;;;3.92;2.46;;;6.90;99.90;;;10.81;100.00;100352.60;1793334;70;25105;-76
2021/01/19 09:16:27;;;;;;;2.67;2.20;;;6.90;99.90;;;10.74;100.00;100345.63;1768780;70;25663;-76
2021/01/19 09:18:53;;;;;;;5.02;2.89;;;7.00;99.90;;;10.79;100.00;100342.61;1784258;70;24619;-76
2021/01/19 09:21:15;;;;;;;2.89;2.40;;;7.00;99.90;;;10.91;100.00;100354.79;1776489;70;25107;-76
2021/01/19 09:23:38;;;;;;;2.62;2.35;;;7.00;99.90;;;10.84;100.00;100340.88;1790553;70;24518;-77
2021/01/19 09:26:04;;;;;;;2.80;2.54;;;7.00;99.90;;;10.85;100.00;100344.33;1766758;70;24521;-76
2021/01/19 09:28:25;;;;;;;2.92;2.40;;;7.00;99.90;;;10.81;100.00;100343.48;1785994;70;24459;-77
2021/01/19 09:30:39;;;;;;;3.40;2.80;;;7.10;99.90;;;10.84;100.00;100351.72;1764039;71;24520;-77
2021/01/19 09:32:59;;;;;;;2.53;2.32;;;7.10;99.90;;;11.02;100.00;100330.92;1785768;69;25227;-77
2021/01/19 09:35:21;;;;;;;3.62;2.97;;;7.10;99.90;;;10.98;100.00;100359.12;1788709;69;25119;-78
2021/01/19 09:37:37;;;;;;;3.17;2.88;;;7.20;99.90;;;10.96;100.00;100361.72;1785452;70;24474;-74
2021/01/19 09:56:02;;;;;;;4.23;2.78;;;7.20;99.90;;;11.52;100.00;100325.23;1804456;70;25259;-79
2021/01/19 09:58:26;;;;;;;2.91;2.68;;;7.30;99.90;;;11.16;100.00;100338.30;1768948;70;24535;-77
2021/01/19 10:00:44;;;;;;;3.37;3.10;;;7.30;99.90;;;11.31;100.00;100326.55;1769590;70;25117;-75
2021/01/19 10:03:26;;;;;;;3.59;3.34;;;7.40;99.90;;;11.43;100.00;100361.30;1766120;71;25020;-78
2021/01/19 10:05:43;;;;;;;4.24;3.84;;;7.40;99.90;;;11.44;100.00;100338.71;1774923;71;24993;-77
2021/01/19 10:08:02;;;;;;;3.18;2.82;;;7.50;99.90;;;11.57;100.00;100348.27;1779934;71;25184;-76
2021/01/19 10:10:20;;;;;;;3.32;3.02;;;7.50;99.90;;;11.59;100.00;100354.32;1770896;71;24500;-77
2021/01/19 10:12:36;;;;;;;2.83;2.63;;;7.60;99.90;;;11.65;100.00;100331.74;1764922;71;24897;-75
2021/01/19 10:14:55;;;;;;;4.21;3.32;;;7.60;99.90;;;11.38;100.00;100350.00;1775767;71;24413;-76
2021/01/19 10:17:16;;;;;;;3.91;3.57;;;7.60;99.90;;;11.57;100.00;100339.98;1766722;71;24507;-77
2021/01/19 10:19:35;;;;;;;2.91;2.71;;;7.70;99.90;;;11.80;100.00;100338.25;1779966;70;24918;-78
2021/01/19 10:21:56;;;;;;;2.97;2.76;;;7.70;99.90;;;11.66;100.00;100343.05;1775367;70;24570;-77